sensor_id;sensor_type;location;lat;lon;timestamp;pressure;altitude;pressure_sealevel;temperature;humidity
56558;BME280;43358;50.356;12.456;2023-02-11T03:53:25;97251;;;-1.8;95.9
56558;BME280;43358;50.356;12.456;2023-02-11T03:53:25;97251;;;-1.7;95.9
56558;BME280;43358;50.356;12.456;2023-02-11T04:03:52;96976;;;-1.8;98.8
56558;BME280;43358;50.356;12.456;2023-02-11T04:04:52;96973;;;-1.8;98.8
56558;BME280;43358;50.356;12.456;2023-02-11T04:11:52;96968;;;-1.6;98.8
56558;BME280;43358;50.356;12.456;2023-02-11T04:12:54;96973;;;-1.6;98.8
56558;BME280;43358;50.356;12.456;2023-02-11T04:20:03;96967;;;-1.5;98.8
56558;BME280;43358;50.356;12.456;2023-02-11T04:23:52;96966;;;-1.5;98.8
56558;BME280;43358;50.356;12.456;2023-02-11T04:26:05;96955;;;-1.5;98.8
56558;BME280;43358;50.356;12.456;2023-02-11T04:39:03;96941;;;-1;98.5
56558;BME280;43358;50.356;12.456;2023-02-11T04:48:52;96939;;;-1.2;98.7
56558;BME280;43358;50.356;12.456;2023-02-11T04:49:52;96942;;;-1.2;98.7
56558;BME280;43358;50.356;12.456;2023-02-11T04:51:52;96934;;;-1.3;98.8
56558;BME280;43358;50.356;12.456;2023-02-11T04:52:52;96934;;;-1.2;98.8
56558;BME280;43358;50.356;12.456;2023-02-11T05:05:18;96948;;;-1.4;98.8
56558;BME280;43358;50.356;12.456;2023-02-11T05:06:21;96950;;;-1.4;98.8
56558;BME280;43358;50.356;12.456;2023-02-11T05:07:22;96954;;;-1.4;98.8
56558;BME280;43358;50.356;12.456;2023-02-11T05:10:52;96951;;;-1.4;98.8
56558;BME280;43358;50.356;12.456;2023-02-11T05:11:52;96952;;;-1.4;98.8
56558;BME280;43358;50.356;12.456;2023-02-11T05:12:52;96945;;;-1.3;98.8
56558;BME280;43358;50.356;12.456;2023-02-11T05:13:52;96945;;;-1.3;98.8
56558;BME280;43358;50.356;12.456;2023-02-11T05:36:52;96946;;;-1.3;98.8
56558;BME280;43358;50.356;12.456;2023-02-11T05:42:52;96970;;;-1;98.5
56558;BME280;43358;50.356;12.456;2023-02-11T05:43:52;96973;;;-1.1;98.4
56558;BME280;43358;50.356;12.456;2023-02-11T05:44:52;96976;;;-1.1;98.8
56558;BME280;43358;50.356;12.456;2023-02-11T05:45:52;96977;;;-1.1;98.8
56558;BME280;43358;50.356;12.456;2023-02-11T05:47:52;96983;;;-1.1;98.8
56558;BME280;43358;50.356;12.456;2023-02-11T05:48:52;96978;;;-1.2;98.8
56558;BME280;43358;50.356;12.456;2023-02-11T05:49:52;96977;;;-1.2;98.8
56558;BME280;43358;50.356;12.456;2023-02-11T05:50:52;96981;;;-1.2;98.8
56558;BME280;43358;50.356;12.456;2023-02-11T05:54:52;96977;;;-1.2;98.8
56558;BME280;43358;50.356;12.456;2023-02-11T05:55:52;96981;;;-1.2;98.8
56558;BME280;43358;50.356;12.456;2023-02-11T07:43:57;96982;;;-1.1;98.6
56558;BME280;43358;50.356;12.456;2023-02-11T07:45:06;96994;;;0.1;98.8
56558;BME280;43358;50.356;12.456;2023-02-11T07:46:18;96994;;;0.1;98.8
56558;BME280;43358;50.356;12.456;2023-02-11T07:51:06;96994;;;0.2;98.6
56558;BME280;43358;50.356;12.456;2023-02-11T07:52:32;96996;;;0.3;98.6
56558;BME280;43358;50.356;12.456;2023-02-11T07:53:34;96998;;;0.3;98.4
56558;BME280;43358;50.356;12.456;2023-02-11T07:57:06;96999;;;0.4;97.7
56558;BME280;43358;50.356;12.456;2023-02-11T07:58:06;96996;;;0.4;97.8
56558;BME280;43358;50.356;12.456;2023-02-11T07:59:47;96998;;;0.5;97.7
56558;BME280;43358;50.356;12.456;2023-02-11T08:00:50;96997;;;0.5;97.4
56558;BME280;43358;50.356;12.456;2023-02-11T08:01:52;96994;;;0.6;97.1
56558;BME280;43358;50.356;12.456;2023-02-11T08:02:55;96992;;;0.6;97
56558;BME280;43358;50.356;12.456;2023-02-11T08:03:58;96986;;;0.6;96.8
56558;BME280;43358;50.356;12.456;2023-02-11T08:04:59;96985;;;0.6;96.7
56558;BME280;43358;50.356;12.456;2023-02-11T08:06:02;96985;;;0.7;96.6
56558;BME280;43358;50.356;12.456;2023-02-11T08:07:03;96983;;;0.6;96.6
56558;BME280;43358;50.356;12.456;2023-02-11T08:08:05;96983;;;0.6;96.6
56558;BME280;43358;50.356;12.456;2023-02-11T08:09:07;96983;;;0.6;96.6
56558;BME280;43358;50.356;12.456;2023-02-11T08:11:12;96987;;;0.6;96.8
56558;BME280;43358;50.356;12.456;2023-02-11T08:12:29;96986;;;0.6;97
56558;BME280;43358;50.356;12.456;2023-02-11T08:13:19;96983;;;0.6;96.8
56558;BME280;43358;50.356;12.456;2023-02-11T08:14:21;96985;;;0.6;96.8
56558;BME280;43358;50.356;12.456;2023-02-11T08:15:23;96989;;;0.5;96.8
56558;BME280;43358;50.356;12.456;2023-02-11T08:16:25;96992;;;0.5;97.2
56558;BME280;43358;50.356;12.456;2023-02-11T08:17:27;96996;;;0.5;97.3
56558;BME280;43358;50.356;12.456;2023-02-11T08:18:29;96993;;;0.5;97.5
56558;BME280;43358;50.356;12.456;2023-02-11T08:19:31;96992;;;0.5;97.3
56558;BME280;43358;50.356;12.456;2023-02-11T08:20:33;96991;;;0.5;97.3
56558;BME280;43358;50.356;12.456;2023-02-11T08:21:35;96985;;;0.5;97.4
56558;BME280;43358;50.356;12.456;2023-02-11T08:23:06;96986;;;0.6;97.2
56558;BME280;43358;50.356;12.456;2023-02-11T08:24:06;96983;;;0.5;97.1
56558;BME280;43358;50.356;12.456;2023-02-11T08:25:06;96984;;;0.6;97.4
56558;BME280;43358;50.356;12.456;2023-02-11T08:26:06;96988;;;0.6;97.2
56558;BME280;43358;50.356;12.456;2023-02-11T08:27:06;96987;;;0.6;97.2
56558;BME280;43358;50.356;12.456;2023-02-11T08:28:06;96987;;;0.7;97
56558;BME280;43358;50.356;12.456;2023-02-11T08:29:06;96986;;;0.7;96.9
56558;BME280;43358;50.356;12.456;2023-02-11T08:30:06;96986;;;0.7;96.9
56558;BME280;43358;50.356;12.456;2023-02-11T08:31:06;96992;;;0.6;96.8
56558;BME280;43358;50.356;12.456;2023-02-11T08:32:06;96992;;;0.6;97
56558;BME280;43358;50.356;12.456;2023-02-11T08:33:06;96998;;;0.6;97.2
56558;BME280;43358;50.356;12.456;2023-02-11T08:34:06;96997;;;0.6;97.1
56558;BME280;43358;50.356;12.456;2023-02-11T08:35:06;96999;;;0.6;97.4
56558;BME280;43358;50.356;12.456;2023-02-11T08:36:07;97003;;;0.6;97.1
56558;BME280;43358;50.356;12.456;2023-02-11T08:37:10;97000;;;0.7;97
56558;BME280;43358;50.356;12.456;2023-02-11T08:38:12;96999;;;0.7;96.9
56558;BME280;43358;50.356;12.456;2023-02-11T08:39:16;97002;;;0.6;96.9
56558;BME280;43358;50.356;12.456;2023-02-11T08:40:19;97002;;;0.7;97
56558;BME280;43358;50.356;12.456;2023-02-11T08:41:22;97002;;;0.7;96.9
56558;BME280;43358;50.356;12.456;2023-02-11T08:42:24;97002;;;0.7;96.8
56558;BME280;43358;50.356;12.456;2023-02-11T08:43:26;97004;;;0.7;96.7
56558;BME280;43358;50.356;12.456;2023-02-11T08:44:28;97003;;;0.7;96.9
56558;BME280;43358;50.356;12.456;2023-02-11T08:46:32;97000;;;0.7;96.9
56558;BME280;43358;50.356;12.456;2023-02-11T08:47:35;97001;;;0.7;96.8
56558;BME280;43358;50.356;12.456;2023-02-11T08:48:37;96996;;;0.7;96.7
56558;BME280;43358;50.356;12.456;2023-02-11T08:49:39;96996;;;0.7;97
56558;BME280;43358;50.356;12.456;2023-02-11T08:50:41;96995;;;0.6;97
56558;BME280;43358;50.356;12.456;2023-02-11T08:51:43;96999;;;0.6;97.2
56558;BME280;43358;50.356;12.456;2023-02-11T08:52:45;96997;;;0.6;97.4
56558;BME280;43358;50.356;12.456;2023-02-11T08:53:47;96997;;;0.6;97.3
56558;BME280;43358;50.356;12.456;2023-02-11T08:54:49;97000;;;0.6;97.1
56558;BME280;43358;50.356;12.456;2023-02-11T08:55:51;96999;;;0.7;97.3
56558;BME280;43358;50.356;12.456;2023-02-11T08:56:53;97002;;;0.7;97
56558;BME280;43358;50.356;12.456;2023-02-11T08:57:55;97002;;;0.7;97
56558;BME280;43358;50.356;12.456;2023-02-11T08:58:57;97002;;;0.7;96.9
56558;BME280;43358;50.356;12.456;2023-02-11T08:59:59;97002;;;0.8;96.8
56558;BME280;43358;50.356;12.456;2023-02-11T09:01:01;97005;;;0.8;97
56558;BME280;43358;50.356;12.456;2023-02-11T09:02:03;97008;;;0.8;96.9
56558;BME280;43358;50.356;12.456;2023-02-11T09:03:05;97007;;;0.8;97
56558;BME280;43358;50.356;12.456;2023-02-11T09:04:08;97012;;;0.8;96.8
56558;BME280;43358;50.356;12.456;2023-02-11T09:05:09;97017;;;0.8;96.7
56558;BME280;43358;50.356;12.456;2023-02-11T09:07:15;97016;;;0.9;96.7
56558;BME280;43358;50.356;12.456;2023-02-11T09:08:17;97016;;;0.9;96.7
56558;BME280;43358;50.356;12.456;2023-02-11T09:09:19;97014;;;0.9;96.7
56558;BME280;43358;50.356;12.456;2023-02-11T09:10:21;97012;;;0.9;96.7
56558;BME280;43358;50.356;12.456;2023-02-11T09:11:25;97010;;;0.8;96.7
56558;BME280;43358;50.356;12.456;2023-02-11T09:12:25;97009;;;0.8;96.9
56558;BME280;43358;50.356;12.456;2023-02-11T09:18:41;97015;;;0.8;97.2
56558;BME280;43358;50.356;12.456;2023-02-11T09:19:08;97010;;;0.9;97.3
56558;BME280;43358;50.356;12.456;2023-02-11T09:22:15;97008;;;0.9;97.2
56558;BME280;43358;50.356;12.456;2023-02-11T09:23:15;97011;;;0.9;97.1
56558;BME280;43358;50.356;12.456;2023-02-11T09:25:08;97010;;;0.9;97.1
56558;BME280;43358;50.356;12.456;2023-02-11T09:26:03;97012;;;0.9;97.3
56558;BME280;43358;50.356;12.456;2023-02-11T09:27:00;97014;;;1;97.2
56558;BME280;43358;50.356;12.456;2023-02-11T09:28:00;97012;;;1;97.1
56558;BME280;43358;50.356;12.456;2023-02-11T09:29:00;97014;;;1;97.1
56558;BME280;43358;50.356;12.456;2023-02-11T09:30:06;97013;;;0.9;97
56558;BME280;43358;50.356;12.456;2023-02-11T09:31:03;97013;;;0.9;97.5
56558;BME280;43358;50.356;12.456;2023-02-11T09:32:00;97018;;;0.9;97.7
56558;BME280;43358;50.356;12.456;2023-02-11T09:34:01;97014;;;0.9;97.6
56558;BME280;43358;50.356;12.456;2023-02-11T09:35:00;97013;;;0.8;97.7
56558;BME280;43358;50.356;12.456;2023-02-11T09:36:00;97013;;;0.8;98.1
56558;BME280;43358;50.356;12.456;2023-02-11T09:37:00;97015;;;0.8;98.3
56558;BME280;43358;50.356;12.456;2023-02-11T09:38:00;97016;;;0.7;98.5
56558;BME280;43358;50.356;12.456;2023-02-11T09:39:51;97015;;;0.8;98.5
56558;BME280;43358;50.356;12.456;2023-02-11T09:40:53;97015;;;0.8;98.4
56558;BME280;43358;50.356;12.456;2023-02-11T09:45:44;97014;;;0.9;98
56558;BME280;43358;50.356;12.456;2023-02-11T09:46:49;97010;;;0.9;97.9
56558;BME280;43358;50.356;12.456;2023-02-11T09:47:49;97012;;;0.9;97.9
56558;BME280;43358;50.356;12.456;2023-02-11T09:48:56;97009;;;1;97.8
56558;BME280;43358;50.356;12.456;2023-02-11T09:49:53;97007;;;1;97.8
56558;BME280;43358;50.356;12.456;2023-02-11T09:50:56;97006;;;1;97.8
56558;BME280;43358;50.356;12.456;2023-02-11T09:51:57;97005;;;1;97.9
56558;BME280;43358;50.356;12.456;2023-02-11T09:52:59;97010;;;1;98.1
56558;BME280;43358;50.356;12.456;2023-02-11T09:54:02;97015;;;1;98
56558;BME280;43358;50.356;12.456;2023-02-11T09:55:03;97022;;;1;98.1
56558;BME280;43358;50.356;12.456;2023-02-11T09:56:09;97024;;;1;98.1
56558;BME280;43358;50.356;12.456;2023-02-11T09:57:07;97027;;;1;98.1
56558;BME280;43358;50.356;12.456;2023-02-11T09:58:11;97029;;;1;98.2
56558;BME280;43358;50.356;12.456;2023-02-11T09:59:11;97026;;;1;98.1
56558;BME280;43358;50.356;12.456;2023-02-11T10:00:17;97030;;;1;98.2
56558;BME280;43358;50.356;12.456;2023-02-11T10:01:19;97028;;;1;98.4
56558;BME280;43358;50.356;12.456;2023-02-11T10:02:19;97025;;;1.1;98.4
56558;BME280;43358;50.356;12.456;2023-02-11T10:03:26;97027;;;1.1;98.2
56558;BME280;43358;50.356;12.456;2023-02-11T10:04:23;97028;;;1.1;98.1
56558;BME280;43358;50.356;12.456;2023-02-11T10:05:25;97031;;;1.1;98.1
56558;BME280;43358;50.356;12.456;2023-02-11T10:06:32;97026;;;1.1;98.1
56558;BME280;43358;50.356;12.456;2023-02-11T10:07:29;97027;;;1.1;98
56558;BME280;43358;50.356;12.456;2023-02-11T10:08:32;97024;;;1.1;98
56558;BME280;43358;50.356;12.456;2023-02-11T10:09:39;97030;;;1.1;97.9
56558;BME280;43358;50.356;12.456;2023-02-11T10:10:37;97031;;;1.1;97.6
56558;BME280;43358;50.356;12.456;2023-02-11T10:11:38;97029;;;1.1;97.6
56558;BME280;43358;50.356;12.456;2023-02-11T10:12:43;97032;;;1.1;98
56558;BME280;43358;50.356;12.456;2023-02-11T10:13:43;97034;;;1;98
56558;BME280;43358;50.356;12.456;2023-02-11T10:14:47;97034;;;1;98
56558;BME280;43358;50.356;12.456;2023-02-11T10:15:45;97037;;;1;98.1
56558;BME280;43358;50.356;12.456;2023-02-11T10:16:50;97041;;;1;98
56558;BME280;43358;50.356;12.456;2023-02-11T10:17:56;97042;;;1;98.2
56558;BME280;43358;50.356;12.456;2023-02-11T10:18:56;97045;;;1;98.3
56558;BME280;43358;50.356;12.456;2023-02-11T10:19:58;97047;;;1;98.4
56558;BME280;43358;50.356;12.456;2023-02-11T10:20:58;97055;;;1;98.4
56558;BME280;43358;50.356;12.456;2023-02-11T10:21:58;97055;;;1;98.4
56558;BME280;43358;50.356;12.456;2023-02-11T10:22:59;97051;;;1;98.5
56558;BME280;43358;50.356;12.456;2023-02-11T10:24:03;97049;;;1;98.4
56558;BME280;43358;50.356;12.456;2023-02-11T10:25:07;97049;;;1;98.4
56558;BME280;43358;50.356;12.456;2023-02-11T10:26:09;97047;;;1;98.5
56558;BME280;43358;50.356;12.456;2023-02-11T10:27:11;97050;;;1;98.6
56558;BME280;43358;50.356;12.456;2023-02-11T10:28:10;97047;;;1;98.7
56558;BME280;43358;50.356;12.456;2023-02-11T10:29:23;97048;;;1;98.8
56558;BME280;43358;50.356;12.456;2023-02-11T10:30:25;97049;;;1;98.8
56558;BME280;43358;50.356;12.456;2023-02-11T10:31:16;97054;;;1;98.8
56558;BME280;43358;50.356;12.456;2023-02-11T10:32:23;97047;;;1;98.8
56558;BME280;43358;50.356;12.456;2023-02-11T10:33:22;97046;;;1;98.8
56558;BME280;43358;50.356;12.456;2023-02-11T10:34:22;97049;;;1;98.8
56558;BME280;43358;50.356;12.456;2023-02-11T10:35:24;97051;;;1;98.8
56558;BME280;43358;50.356;12.456;2023-02-11T10:36:27;97050;;;1;98.8
56558;BME280;43358;50.356;12.456;2023-02-11T10:39:39;97051;;;1;98.8
56558;BME280;43358;50.356;12.456;2023-02-11T10:40:41;97049;;;1.1;98.8
56558;BME280;43358;50.356;12.456;2023-02-11T10:41:45;97040;;;1.1;98.8
56558;BME280;43358;50.356;12.456;2023-02-11T10:42:46;97033;;;1.2;98.6
56558;BME280;43358;50.356;12.456;2023-02-11T10:43:47;97027;;;1.1;98.5
56558;BME280;43358;50.356;12.456;2023-02-11T10:44:53;97029;;;1.1;98.5
56558;BME280;43358;50.356;12.456;2023-02-11T10:45:52;97030;;;1.1;98.8
56558;BME280;43358;50.356;12.456;2023-02-11T10:46:53;97025;;;1.1;98.8
56558;BME280;43358;50.356;12.456;2023-02-11T10:47:55;97025;;;1;98.8
56558;BME280;43358;50.356;12.456;2023-02-11T10:48:57;97033;;;1;98.8
56558;BME280;43358;50.356;12.456;2023-02-11T10:49:59;97033;;;1;98.8
56558;BME280;43358;50.356;12.456;2023-02-11T10:51:05;97031;;;1;98.8
56558;BME280;43358;50.356;12.456;2023-02-11T10:52:11;97032;;;1;98.8
56558;BME280;43358;50.356;12.456;2023-02-11T10:53:15;97028;;;1;98.8
56558;BME280;43358;50.356;12.456;2023-02-11T10:54:10;97031;;;1;98.8
56558;BME280;43358;50.356;12.456;2023-02-11T10:55:13;97029;;;1;98.8
56558;BME280;43358;50.356;12.456;2023-02-11T10:56:13;97034;;;1.1;98.8
56558;BME280;43358;50.356;12.456;2023-02-11T10:57:15;97029;;;1.1;98.8
56558;BME280;43358;50.356;12.456;2023-02-11T10:58:20;97030;;;1.1;98.8
56558;BME280;43358;50.356;12.456;2023-02-11T10:59:20;97030;;;1.2;98.8
56558;BME280;43358;50.356;12.456;2023-02-11T11:00:25;97030;;;1.1;98.8
56558;BME280;43358;50.356;12.456;2023-02-11T11:01:22;97032;;;1.2;98.8
56558;BME280;43358;50.356;12.456;2023-02-11T11:02:27;97032;;;1.2;98.7
56558;BME280;43358;50.356;12.456;2023-02-11T11:03:28;97031;;;1.2;98.7
56558;BME280;43358;50.356;12.456;2023-02-11T11:04:33;97032;;;1.2;98.6
56558;BME280;43358;50.356;12.456;2023-02-11T11:05:32;97031;;;1.1;98.5
56558;BME280;43358;50.356;12.456;2023-02-11T11:06:33;97035;;;1.1;98.8
56558;BME280;43358;50.356;12.456;2023-02-11T11:07:35;97038;;;1.2;98.8
56558;BME280;43358;50.356;12.456;2023-02-11T11:08:42;97041;;;1.2;98.7
56558;BME280;43358;50.356;12.456;2023-02-11T11:09:43;97040;;;1.2;98.8
56558;BME280;43358;50.356;12.456;2023-02-11T11:10:44;97040;;;1.2;98.8
56558;BME280;43358;50.356;12.456;2023-02-11T11:11:49;97038;;;1.2;98.7
56558;BME280;43358;50.356;12.456;2023-02-11T11:12:47;97037;;;1.2;98.7
56558;BME280;43358;50.356;12.456;2023-02-11T11:15:13;97035;;;1.2;98.8
56558;BME280;43358;50.356;12.456;2023-02-11T11:16:08;97040;;;1.2;98.8
56558;BME280;43358;50.356;12.456;2023-02-11T11:17:00;97036;;;1.2;98.6
56558;BME280;43358;50.356;12.456;2023-02-11T11:18:08;97034;;;1.3;98.7
56558;BME280;43358;50.356;12.456;2023-02-11T11:19:19;97032;;;1.3;98.8
56558;BME280;43358;50.356;12.456;2023-02-11T11:20:13;97034;;;1.3;98.6
56558;BME280;43358;50.356;12.456;2023-02-11T11:22:00;97027;;;1.3;98.4
56558;BME280;43358;50.356;12.456;2023-02-11T11:23:10;97029;;;1.4;98.3
56558;BME280;43358;50.356;12.456;2023-02-11T11:24:00;97025;;;1.4;98.2
56558;BME280;43358;50.356;12.456;2023-02-11T11:25:00;97022;;;1.4;98.1
56558;BME280;43358;50.356;12.456;2023-02-11T11:26:02;97023;;;1.4;97.9
56558;BME280;43358;50.356;12.456;2023-02-11T11:27:00;97024;;;1.4;97.9
56558;BME280;43358;50.356;12.456;2023-02-11T11:28:00;97024;;;1.4;98.1
56558;BME280;43358;50.356;12.456;2023-02-11T11:29:00;97027;;;1.5;98
56558;BME280;43358;50.356;12.456;2023-02-11T11:30:13;97024;;;1.5;97.7
56558;BME280;43358;50.356;12.456;2023-02-11T11:31:00;97022;;;1.5;97.5
56558;BME280;43358;50.356;12.456;2023-02-11T11:32:00;97024;;;1.5;97.5
56558;BME280;43358;50.356;12.456;2023-02-11T11:33:01;97025;;;1.4;97.7
56558;BME280;43358;50.356;12.456;2023-02-11T11:34:00;97026;;;1.4;97.8
56558;BME280;43358;50.356;12.456;2023-02-11T11:35:00;97029;;;1.5;97.9
56558;BME280;43358;50.356;12.456;2023-02-11T11:36:01;97030;;;1.5;97.8
56558;BME280;43358;50.356;12.456;2023-02-11T11:37:01;97033;;;1.5;97.7
56558;BME280;43358;50.356;12.456;2023-02-11T11:38:01;97032;;;1.5;97.9
56558;BME280;43358;50.356;12.456;2023-02-11T11:39:00;97029;;;1.5;97.9
56558;BME280;43358;50.356;12.456;2023-02-11T11:40:02;97031;;;1.5;97.8
56558;BME280;43358;50.356;12.456;2023-02-11T11:41:32;97028;;;1.5;97.6
56558;BME280;43358;50.356;12.456;2023-02-11T11:42:00;97029;;;1.5;97.7
56558;BME280;43358;50.356;12.456;2023-02-11T11:43:02;97028;;;1.4;97.6
56558;BME280;43358;50.356;12.456;2023-02-11T11:44:02;97031;;;1.4;98
56558;BME280;43358;50.356;12.456;2023-02-11T11:45:00;97026;;;1.4;98
56558;BME280;43358;50.356;12.456;2023-02-11T11:46:00;97022;;;1.4;98
56558;BME280;43358;50.356;12.456;2023-02-11T11:47:32;97019;;;1.4;98.2
56558;BME280;43358;50.356;12.456;2023-02-11T11:48:01;97016;;;1.5;98.2
56558;BME280;43358;50.356;12.456;2023-02-11T11:49:06;97014;;;1.5;97.9
56558;BME280;43358;50.356;12.456;2023-02-11T11:50:11;97013;;;1.5;97.7
56558;BME280;43358;50.356;12.456;2023-02-11T11:51:08;97011;;;1.5;97.8
56558;BME280;43358;50.356;12.456;2023-02-11T11:52:10;97015;;;1.5;97.8
56558;BME280;43358;50.356;12.456;2023-02-11T11:53:13;97016;;;1.5;97.9
56558;BME280;43358;50.356;12.456;2023-02-11T11:54:14;97020;;;1.6;97.8
56558;BME280;43358;50.356;12.456;2023-02-11T11:55:16;97023;;;1.6;97.6
56558;BME280;43358;50.356;12.456;2023-02-11T11:56:19;97025;;;1.7;97.3
56558;BME280;43358;50.356;12.456;2023-02-11T11:57:21;97024;;;1.7;97.3
56558;BME280;43358;50.356;12.456;2023-02-11T11:58:22;97022;;;1.7;97.2
56558;BME280;43358;50.356;12.456;2023-02-11T11:59:24;97022;;;1.7;97.2
56558;BME280;43358;50.356;12.456;2023-02-11T12:01:50;97016;;;1.7;97
56558;BME280;43358;50.356;12.456;2023-02-11T12:02:57;97020;;;1.7;97
56558;BME280;43358;50.356;12.456;2023-02-11T12:04:02;97020;;;1.7;97.1
56558;BME280;43358;50.356;12.456;2023-02-11T12:04:54;97014;;;1.7;97.1
56558;BME280;43358;50.356;12.456;2023-02-11T12:05:57;97010;;;1.7;97.2
56558;BME280;43358;50.356;12.456;2023-02-11T12:06:59;97007;;;1.7;97.2
56558;BME280;43358;50.356;12.456;2023-02-11T12:08:08;97005;;;1.7;97.1
56558;BME280;43358;50.356;12.456;2023-02-11T12:09:02;97003;;;1.7;97
56558;BME280;43358;50.356;12.456;2023-02-11T12:10:15;97000;;;1.7;97
56558;BME280;43358;50.356;12.456;2023-02-11T12:11:06;97001;;;1.7;96.9
56558;BME280;43358;50.356;12.456;2023-02-11T12:14:04;97003;;;1.8;96.6
56558;BME280;43358;50.356;12.456;2023-02-11T12:15:03;97002;;;1.8;96.7
56558;BME280;43358;50.356;12.456;2023-02-11T12:16:03;97002;;;1.8;96.7
56558;BME280;43358;50.356;12.456;2023-02-11T12:17:01;97000;;;1.8;96.8
56558;BME280;43358;50.356;12.456;2023-02-11T12:18:04;96998;;;1.8;96.8
56558;BME280;43358;50.356;12.456;2023-02-11T12:19:08;96994;;;1.8;96.8
56558;BME280;43358;50.356;12.456;2023-02-11T12:20:04;96996;;;1.8;96.9
56558;BME280;43358;50.356;12.456;2023-02-11T12:21:06;96993;;;1.8;96.8
56558;BME280;43358;50.356;12.456;2023-02-11T12:22:06;96996;;;1.8;96.6
56558;BME280;43358;50.356;12.456;2023-02-11T12:23:04;96995;;;1.8;96.7
56558;BME280;43358;50.356;12.456;2023-02-11T12:24:05;96995;;;1.8;96.8
56558;BME280;43358;50.356;12.456;2023-02-11T12:25:05;96989;;;1.8;96.7
56558;BME280;43358;50.356;12.456;2023-02-11T12:26:01;96991;;;1.8;96.7
56558;BME280;43358;50.356;12.456;2023-02-11T12:27:01;96996;;;1.8;97
56558;BME280;43358;50.356;12.456;2023-02-11T12:28:02;96996;;;1.9;96.9
56558;BME280;43358;50.356;12.456;2023-02-11T12:29:04;96997;;;1.9;96.8
56558;BME280;43358;50.356;12.456;2023-02-11T12:30:01;96994;;;1.9;96.7
56558;BME280;43358;50.356;12.456;2023-02-11T12:31:10;96994;;;1.9;96.7
56558;BME280;43358;50.356;12.456;2023-02-11T12:32:04;96994;;;1.9;96.6
56558;BME280;43358;50.356;12.456;2023-02-11T12:33:01;96995;;;1.8;96.7
56558;BME280;43358;50.356;12.456;2023-02-11T12:34:08;96992;;;1.8;96.9
56558;BME280;43358;50.356;12.456;2023-02-11T12:35:11;96990;;;1.7;97
56558;BME280;43358;50.356;12.456;2023-02-11T12:36:01;96988;;;1.8;97.1
56558;BME280;43358;50.356;12.456;2023-02-11T12:38:08;96986;;;1.7;97.2
56558;BME280;43358;50.356;12.456;2023-02-11T12:39:02;96987;;;1.7;97.6
56558;BME280;43358;50.356;12.456;2023-02-11T12:40:02;96982;;;1.7;97.5
56558;BME280;43358;50.356;12.456;2023-02-11T12:41:04;96982;;;1.7;97.6
56558;BME280;43358;50.356;12.456;2023-02-11T12:42:05;96978;;;1.8;97.4
56558;BME280;43358;50.356;12.456;2023-02-11T12:44:00;96982;;;1.8;97.5
56558;BME280;43358;50.356;12.456;2023-02-11T12:45:08;96987;;;1.8;97.3
56558;BME280;43358;50.356;12.456;2023-02-11T12:46:33;96985;;;1.9;97
56558;BME280;43358;50.356;12.456;2023-02-11T12:47:01;96984;;;1.8;97.1
56558;BME280;43358;50.356;12.456;2023-02-11T12:48:04;96985;;;1.8;97.1
56558;BME280;43358;50.356;12.456;2023-02-11T12:49:04;96984;;;1.8;97.3
56558;BME280;43358;50.356;12.456;2023-02-11T12:50:03;96983;;;1.8;97.4
56558;BME280;43358;50.356;12.456;2023-02-11T12:51:00;96981;;;1.8;97.3
56558;BME280;43358;50.356;12.456;2023-02-11T12:52:03;96976;;;1.8;97.2
56558;BME280;43358;50.356;12.456;2023-02-11T12:53:04;96978;;;1.8;97.4
56558;BME280;43358;50.356;12.456;2023-02-11T12:54:06;96974;;;1.8;97.3
56558;BME280;43358;50.356;12.456;2023-02-11T12:55:01;96978;;;1.8;97.5
56558;BME280;43358;50.356;12.456;2023-02-11T12:56:01;96978;;;1.8;97.4
56558;BME280;43358;50.356;12.456;2023-02-11T12:57:05;96981;;;1.8;97.4
56558;BME280;43358;50.356;12.456;2023-02-11T12:59:05;96981;;;1.9;97.3
56558;BME280;43358;50.356;12.456;2023-02-11T13:00:02;96981;;;1.9;97.3
56558;BME280;43358;50.356;12.456;2023-02-11T13:01:01;96988;;;1.9;97.1
56558;BME280;43358;50.356;12.456;2023-02-11T13:02:01;96988;;;1.9;97.3
56558;BME280;43358;50.356;12.456;2023-02-11T13:03:00;96989;;;1.9;97.3
56558;BME280;43358;50.356;12.456;2023-02-11T13:04:03;96991;;;1.8;97.2
56558;BME280;43358;50.356;12.456;2023-02-11T13:05:01;96993;;;1.8;97.4
56558;BME280;43358;50.356;12.456;2023-02-11T13:06:03;96997;;;1.8;97.5
56558;BME280;43358;50.356;12.456;2023-02-11T13:07:04;96995;;;1.8;97.5
56558;BME280;43358;50.356;12.456;2023-02-11T13:08:08;96995;;;1.7;97.6
56558;BME280;43358;50.356;12.456;2023-02-11T13:09:10;96991;;;1.7;97.7
56558;BME280;43358;50.356;12.456;2023-02-11T13:10:15;96994;;;1.7;97.8
56558;BME280;43358;50.356;12.456;2023-02-11T13:11:14;96989;;;1.7;98.2
56558;BME280;43358;50.356;12.456;2023-02-11T13:12:14;96986;;;1.7;98.1
56558;BME280;43358;50.356;12.456;2023-02-11T13:13:17;96983;;;1.7;98
56558;BME280;43358;50.356;12.456;2023-02-11T13:14:21;96980;;;1.8;97.9
56558;BME280;43358;50.356;12.456;2023-02-11T13:15:20;96980;;;1.8;97.7
56558;BME280;43358;50.356;12.456;2023-02-11T13:16:28;96979;;;1.8;97.8
56558;BME280;43358;50.356;12.456;2023-02-11T13:17:27;96973;;;1.8;97.6
56558;BME280;43358;50.356;12.456;2023-02-11T13:18:30;96979;;;1.8;97.7
56558;BME280;43358;50.356;12.456;2023-02-11T13:19:29;96976;;;1.7;97.8
56558;BME280;43358;50.356;12.456;2023-02-11T13:20:33;96977;;;1.7;97.8
56558;BME280;43358;50.356;12.456;2023-02-11T13:21:35;96973;;;1.7;98
56558;BME280;43358;50.356;12.456;2023-02-11T13:22:36;96975;;;1.7;98.1
56558;BME280;43358;50.356;12.456;2023-02-11T13:23:38;96976;;;1.7;98.1
56558;BME280;43358;50.356;12.456;2023-02-11T13:24:40;96973;;;1.7;98.2
56558;BME280;43358;50.356;12.456;2023-02-11T13:25:47;96977;;;1.8;98.3
56558;BME280;43358;50.356;12.456;2023-02-11T13:26:44;96979;;;1.8;97.9
56558;BME280;43358;50.356;12.456;2023-02-11T13:30:27;96978;;;2;97.2
56558;BME280;43358;50.356;12.456;2023-02-11T13:31:22;96976;;;2;97
56558;BME280;43358;50.356;12.456;2023-02-11T13:32:14;96975;;;2;97.2
56558;BME280;43358;50.356;12.456;2023-02-11T13:33:17;96974;;;2;97.2
56558;BME280;43358;50.356;12.456;2023-02-11T13:34:22;96975;;;2;97.3
56558;BME280;43358;50.356;12.456;2023-02-11T13:35:29;96973;;;2;97.3
56558;BME280;43358;50.356;12.456;2023-02-11T13:36:24;96977;;;2;97.3
56558;BME280;43358;50.356;12.456;2023-02-11T13:37:27;96973;;;2;97.3
56558;BME280;43358;50.356;12.456;2023-02-11T13:38:28;96973;;;2;97.2